Time;durP1;ratioP1;P1;durP2;ratioP2;P2;SDS_P1;SDS_P2;PMS_P1;PMS_P2;Temp;Humidity;BMP_temperature;BMP_pressure;BME280_temperature;BME280_humidity;BME280_pressure;Samples;Min_cycle;Max_cycle;Signal;HPM_P1;HPM_P2
2022/08/25 00:00:12;;;;;;;5.10;3.70;;;25.70;99.90;;;;;;4224495;28;20229;-81
2022/08/25 00:02:15;;;;;;;5.10;3.45;;;25.70;99.90;;;;;;4214676;28;20218;-81
2022/08/25 00:04:19;;;;;;;3.65;3.35;;;25.70;99.90;;;;;;4214259;28;20238;-81
2022/08/25 00:06:21;;;;;;;4.10;3.08;;;25.70;99.90;;;;;;4214871;28;20218;-81
2022/08/25 00:08:24;;;;;;;3.53;3.22;;;25.70;99.90;;;;;;4219171;28;20616;-81
2022/08/25 00:10:27;;;;;;;4.07;3.65;;;25.70;99.90;;;;;;4221861;28;20268;-81
2022/08/25 00:12:29;;;;;;;4.80;3.55;;;25.70;99.90;;;;;;4212308;28;20214;-81
2022/08/25 00:14:35;;;;;;;3.95;3.33;;;25.70;99.90;;;;;;4215374;28;20653;-81
2022/08/25 00:16:38;;;;;;;4.75;3.30;;;25.70;99.90;;;;;;4214564;28;20222;-81
2022/08/25 00:18:44;;;;;;;4.50;3.47;;;25.70;99.90;;;;;;4210835;28;20268;-81
2022/08/25 00:20:47;;;;;;;4.13;3.22;;;25.60;99.90;;;;;;4214165;28;20215;-81
2022/08/25 00:22:49;;;;;;;3.60;3.30;;;25.60;99.90;;;;;;4213101;28;20636;-81
2022/08/25 00:24:52;;;;;;;3.83;3.53;;;25.60;99.90;;;;;;4211291;28;20206;-81
2022/08/25 00:26:56;;;;;;;4.50;3.47;;;25.60;99.90;;;;;;4214455;28;20283;-81
2022/08/25 00:28:58;;;;;;;3.80;3.42;;;25.70;99.90;;;;;;4213291;28;20266;-81
2022/08/25 00:31:01;;;;;;;3.83;3.17;;;25.70;99.90;;;;;;4211986;28;20264;-82
2022/08/25 00:33:03;;;;;;;4.25;3.58;;;25.60;99.90;;;;;;4210566;28;20222;-81
2022/08/25 00:35:07;;;;;;;3.40;3.10;;;25.70;99.90;;;;;;4213218;28;20211;-81
2022/08/25 00:37:10;;;;;;;3.60;3.25;;;25.60;99.90;;;;;;4213548;28;20279;-82
2022/08/25 00:39:13;;;;;;;4.65;3.45;;;25.60;99.90;;;;;;4211467;28;20207;-81
2022/08/25 00:41:19;;;;;;;4.15;3.28;;;25.60;99.90;;;;;;4212123;28;20244;-82
2022/08/25 00:43:22;;;;;;;3.58;3.28;;;25.60;99.90;;;;;;4211480;28;20249;-82
2022/08/25 00:45:25;;;;;;;3.55;3.25;;;25.60;99.90;;;;;;4212909;28;20263;-81
2022/08/25 00:47:27;;;;;;;3.70;3.40;;;25.60;99.90;;;;;;4211275;28;20218;-82
2022/08/25 00:49:33;;;;;;;4.07;3.55;;;25.60;99.90;;;;;;4210136;28;20240;-81
2022/08/25 00:51:41;;;;;;;3.45;3.15;;;25.60;99.90;;;;;;4211908;28;20757;-81
2022/08/25 00:53:44;;;;;;;3.60;3.30;;;25.60;99.90;;;;;;4211189;28;20707;-81
2022/08/25 00:55:47;;;;;;;3.65;3.30;;;25.60;99.90;;;;;;4212775;28;20210;-81
2022/08/25 00:57:54;;;;;;;3.38;3.10;;;25.60;99.90;;;;;;4212823;28;20219;-81
2022/08/25 00:59:57;;;;;;;3.15;2.85;;;25.50;99.90;;;;;;4211751;28;20262;-81
2022/08/25 01:02:01;;;;;;;3.50;3.20;;;25.50;99.90;;;;;;4213005;28;20222;-81
2022/08/25 01:04:04;;;;;;;3.78;3.42;;;25.60;99.90;;;;;;4210936;28;20237;-81
2022/08/25 01:06:08;;;;;;;3.50;3.20;;;25.60;99.90;;;;;;4212664;28;20248;-81
2022/08/25 01:08:15;;;;;;;3.63;3.30;;;25.60;99.90;;;;;;4212856;28;20263;-81
2022/08/25 01:10:19;;;;;;;3.42;3.13;;;25.60;99.90;;;;;;4212340;28;20268;-81
2022/08/25 01:12:22;;;;;;;3.33;3.03;;;25.60;99.90;;;;;;4211437;28;20226;-82
2022/08/25 01:14:25;;;;;;;3.42;3.13;;;25.60;99.90;;;;;;4212516;28;20219;-81
2022/08/25 01:16:27;;;;;;;3.95;3.55;;;25.60;99.90;;;;;;4211692;28;20272;-81
2022/08/25 01:18:41;;;;;;;3.58;3.28;;;25.50;99.90;;;;;;4211997;28;20215;-81
2022/08/25 01:20:45;;;;;;;3.35;2.88;;;25.60;99.90;;;;;;4211623;28;20230;-82
2022/08/25 01:22:49;;;;;;;3.65;3.35;;;25.60;99.90;;;;;;4210295;28;20283;-81
2022/08/25 01:24:59;;;;;;;4.15;3.28;;;25.50;99.90;;;;;;4210159;28;20689;-82
2022/08/25 01:27:01;;;;;;;4.35;3.17;;;25.50;99.90;;;;;;4208037;28;20259;-81
2022/08/25 01:29:24;;;;;;;4.13;3.20;;;25.50;99.90;;;;;;4210310;28;20937;-82
2022/08/25 01:31:28;;;;;;;3.70;3.08;;;25.50;99.90;;;;;;4209802;28;20210;-81
2022/08/25 01:33:30;;;;;;;3.33;3.03;;;25.50;99.90;;;;;;4209238;28;20272;-81
2022/08/25 01:35:33;;;;;;;3.33;3.03;;;25.50;99.90;;;;;;4210038;28;20243;-81
2022/08/25 01:37:35;;;;;;;3.55;2.88;;;25.50;99.90;;;;;;4208025;28;20619;-81
2022/08/25 01:39:39;;;;;;;3.97;3.45;;;25.50;99.90;;;;;;4208116;28;20263;-78
2022/08/25 01:41:50;;;;;;;3.92;3.38;;;25.50;99.90;;;;;;4211151;28;20215;-78
2022/08/25 01:43:52;;;;;;;3.50;3.00;;;25.50;99.90;;;;;;4210746;28;20282;-79
2022/08/25 01:45:54;;;;;;;3.55;3.25;;;25.50;99.90;;;;;;4212149;28;20718;-79
2022/08/25 01:47:57;;;;;;;3.50;3.20;;;25.50;99.90;;;;;;4211083;28;20280;-79
2022/08/25 01:49:59;;;;;;;4.30;2.83;;;25.50;99.90;;;;;;4218938;28;20211;-79
2022/08/25 01:52:06;;;;;;;3.60;3.30;;;25.50;99.90;;;;;;4210865;28;20387;-78
2022/08/25 01:54:09;;;;;;;3.55;3.25;;;25.50;99.90;;;;;;4213393;28;20628;-79
2022/08/25 01:56:15;;;;;;;3.85;2.97;;;25.50;99.90;;;;;;4211072;28;20299;-79
2022/08/25 01:58:17;;;;;;;3.30;3.00;;;25.50;99.90;;;;;;4211918;28;20251;-78
2022/08/25 02:00:21;;;;;;;3.42;3.13;;;25.50;99.90;;;;;;4208387;28;20223;-79
2022/08/25 02:02:23;;;;;;;3.42;3.13;;;25.50;99.90;;;;;;4210412;28;20260;-79
2022/08/25 02:04:28;;;;;;;2.75;2.55;;;25.50;99.90;;;;;;4208217;28;20238;-79
2022/08/25 02:06:34;;;;;;;3.90;3.00;;;25.50;99.90;;;;;;4208461;28;20226;-79
2022/08/25 02:08:37;;;;;;;3.30;3.00;;;25.50;99.90;;;;;;4208027;28;20678;-78
2022/08/25 02:10:40;;;;;;;3.85;3.53;;;25.50;99.90;;;;;;4208350;28;20275;-78
2022/08/25 02:12:43;;;;;;;3.65;3.33;;;25.50;99.90;;;;;;4209638;28;20218;-79
2022/08/25 02:14:46;;;;;;;3.50;2.60;;;25.50;99.90;;;;;;4210920;28;20271;-79
2022/08/25 02:16:50;;;;;;;2.92;2.63;;;25.50;99.90;;;;;;4210844;28;20271;-78
2022/08/25 02:18:52;;;;;;;3.40;3.10;;;25.50;99.90;;;;;;4209708;28;20223;-79
2022/08/25 02:20:55;;;;;;;3.03;2.80;;;25.50;99.90;;;;;;4211401;28;20219;-79
2022/08/25 02:22:57;;;;;;;3.38;2.80;;;25.50;99.90;;;;;;4208932;28;20313;-79
2022/08/25 02:24:59;;;;;;;3.80;3.20;;;25.50;99.90;;;;;;4208812;28;20237;-79
2022/08/25 02:27:02;;;;;;;3.95;3.20;;;25.50;99.90;;;;;;4208803;28;20263;-78
2022/08/25 02:29:07;;;;;;;3.97;3.33;;;25.50;99.90;;;;;;4208789;28;20267;-79
2022/08/25 02:31:09;;;;;;;3.78;3.13;;;25.50;99.90;;;;;;4207013;28;20272;-79
2022/08/25 02:33:12;;;;;;;3.47;2.90;;;25.50;99.90;;;;;;4209270;28;20279;-79
2022/08/25 02:35:14;;;;;;;3.65;2.80;;;25.50;99.90;;;;;;4207152;28;20256;-79
2022/08/25 02:37:17;;;;;;;3.30;3.00;;;25.50;99.90;;;;;;4207885;28;20583;-79
2022/08/25 02:39:21;;;;;;;3.53;3.15;;;25.50;99.90;;;;;;4210795;28;20317;-79
2022/08/25 02:41:25;;;;;;;3.25;2.95;;;25.50;99.90;;;;;;4211869;28;20222;-79
2022/08/25 02:43:28;;;;;;;4.05;3.28;;;25.50;99.90;;;;;;4212745;28;20210;-79
2022/08/25 02:45:32;;;;;;;3.53;3.10;;;25.50;99.90;;;;;;4215926;28;20234;-79
2022/08/25 02:47:36;;;;;;;3.42;3.13;;;25.50;99.90;;;;;;4213850;28;20347;-79
2022/08/25 02:49:39;;;;;;;3.20;2.90;;;25.40;99.90;;;;;;4213646;28;20256;-79
2022/08/25 02:51:41;;;;;;;3.38;3.08;;;25.40;99.90;;;;;;4212880;28;20339;-78
2022/08/25 02:53:44;;;;;;;3.80;3.20;;;25.40;99.90;;;;;;4213683;28;20219;-78
2022/08/25 02:55:47;;;;;;;3.70;3.33;;;25.40;99.90;;;;;;4212149;28;20720;-78
2022/08/25 02:57:49;;;;;;;3.53;3.20;;;25.40;99.90;;;;;;4213341;28;20240;-79
2022/08/25 02:59:53;;;;;;;3.80;3.03;;;25.40;99.90;;;;;;4213922;28;20219;-79
2022/08/25 03:01:56;;;;;;;3.42;3.17;;;25.40;99.90;;;;;;4211287;28;20223;-78
2022/08/25 03:03:59;;;;;;;3.83;3.10;;;25.40;99.90;;;;;;4213460;28;20268;-78
2022/08/25 03:06:01;;;;;;;3.45;3.15;;;25.40;99.90;;;;;;4213211;28;20685;-78
2022/08/25 03:08:05;;;;;;;3.05;2.72;;;25.40;99.90;;;;;;4213581;28;20744;-79
2022/08/25 03:10:10;;;;;;;3.90;3.03;;;25.40;99.90;;;;;;4213444;28;20215;-79
2022/08/25 03:12:13;;;;;;;3.22;2.92;;;25.40;99.90;;;;;;4213591;28;20257;-79
2022/08/25 03:14:15;;;;;;;4.00;3.00;;;25.40;99.90;;;;;;4213777;28;20219;-78
2022/08/25 03:16:19;;;;;;;3.58;3.28;;;25.40;99.90;;;;;;4212055;28;20264;-81
2022/08/25 03:18:23;;;;;;;4.95;3.22;;;25.40;99.90;;;;;;4213906;28;20214;-81
2022/08/25 03:20:26;;;;;;;3.50;3.20;;;25.40;99.90;;;;;;4213817;28;20214;-81
2022/08/25 03:22:29;;;;;;;4.32;2.90;;;25.40;99.90;;;;;;4212360;28;20218;-81
2022/08/25 03:24:31;;;;;;;5.30;3.50;;;25.40;99.90;;;;;;4211514;28;20218;-81
2022/08/25 03:28:54;;;;;;;3.35;2.88;;;25.40;99.90;;;;;;4212562;28;20198;-81
2022/08/25 03:30:59;;;;;;;2.78;2.58;;;25.30;99.90;;;;;;4208837;28;20259;-81
2022/08/25 03:33:01;;;;;;;3.20;2.90;;;25.40;99.90;;;;;;4211835;28;20210;-81
2022/08/25 03:35:05;;;;;;;3.35;3.05;;;25.40;99.90;;;;;;4212831;28;20244;-81
2022/08/25 03:37:08;;;;;;;3.35;3.05;;;25.30;99.90;;;;;;4212274;28;20215;-81
2022/08/25 03:39:11;;;;;;;3.20;2.90;;;25.30;99.90;;;;;;4212847;28;20215;-81
2022/08/25 03:41:16;;;;;;;3.50;3.20;;;25.30;99.90;;;;;;4213743;28;20210;-81
2022/08/25 03:43:18;;;;;;;3.13;2.83;;;25.30;99.90;;;;;;4211901;28;20252;-81
2022/08/25 03:45:21;;;;;;;3.53;3.22;;;25.30;99.90;;;;;;4213472;28;20702;-81
2022/08/25 03:47:25;;;;;;;3.20;2.88;;;25.40;99.90;;;;;;4213149;28;20264;-81
2022/08/25 03:49:28;;;;;;;4.30;3.00;;;25.30;99.90;;;;;;4211051;28;20662;-81
2022/08/25 03:51:34;;;;;;;3.30;2.97;;;25.30;99.90;;;;;;4213290;28;20236;-81
2022/08/25 03:53:36;;;;;;;3.25;2.95;;;25.30;99.90;;;;;;4211576;28;20355;-81
2022/08/25 03:55:40;;;;;;;3.78;3.10;;;25.30;99.90;;;;;;4211559;28;20206;-81
2022/08/25 03:57:42;;;;;;;3.70;2.90;;;25.30;99.90;;;;;;4211495;28;20267;-81
2022/08/25 03:59:44;;;;;;;4.50;3.17;;;25.30;99.90;;;;;;4210878;28;20563;-81
2022/08/25 04:01:47;;;;;;;4.53;3.10;;;25.30;99.90;;;;;;4211715;28;20654;-81
2022/08/25 04:03:50;;;;;;;4.70;3.50;;;25.30;99.90;;;;;;4211756;28;20226;-81
2022/08/25 04:05:52;;;;;;;3.47;3.17;;;25.30;99.90;;;;;;4210781;28;20292;-81
2022/08/25 04:07:56;;;;;;;3.30;3.00;;;25.30;99.90;;;;;;4211214;28;20263;-81
2022/08/25 04:09:58;;;;;;;4.93;3.13;;;25.30;99.90;;;;;;4211925;28;20211;-81
2022/08/25 04:12:00;;;;;;;3.72;3.20;;;25.30;99.90;;;;;;4211427;28;20264;-81
2022/08/25 04:14:04;;;;;;;3.53;3.20;;;25.30;99.90;;;;;;4211693;28;20284;-81
2022/08/25 04:16:11;;;;;;;3.67;3.38;;;25.30;99.90;;;;;;4211625;28;20206;-81
2022/08/25 04:18:14;;;;;;;4.13;3.28;;;25.30;99.90;;;;;;4209637;28;20625;-81
2022/08/25 04:20:17;;;;;;;5.13;3.22;;;25.30;99.90;;;;;;4211711;28;20524;-81
2022/08/25 04:22:19;;;;;;;3.60;3.22;;;25.30;99.90;;;;;;4211032;28;20219;-82
2022/08/25 04:24:23;;;;;;;3.78;3.30;;;25.30;99.90;;;;;;4210795;28;20218;-81
2022/08/25 04:26:29;;;;;;;3.38;3.00;;;25.30;99.90;;;;;;4210999;28;20291;-81
2022/08/25 04:28:31;;;;;;;4.13;3.15;;;25.30;99.90;;;;;;4210625;28;20615;-81
2022/08/25 04:30:34;;;;;;;3.80;3.10;;;25.30;99.90;;;;;;4211732;28;20222;-81
2022/08/25 04:32:36;;;;;;;3.22;2.92;;;25.30;99.90;;;;;;4209011;28;20264;-81
2022/08/25 04:34:39;;;;;;;3.40;3.10;;;25.30;99.90;;;;;;4208892;28;20658;-81
2022/08/25 04:36:41;;;;;;;3.70;3.35;;;25.30;99.90;;;;;;4208749;28;20215;-81
2022/08/25 04:38:45;;;;;;;2.95;2.75;;;25.30;99.90;;;;;;4208965;28;20276;-81
2022/08/25 04:40:55;;;;;;;5.95;4.03;;;25.30;99.90;;;;;;4208350;28;20268;-81
2022/08/25 04:42:58;;;;;;;4.15;3.15;;;25.30;99.90;;;;;;4210437;28;20210;-81
2022/08/25 04:45:02;;;;;;;3.30;3.03;;;25.30;99.90;;;;;;4210804;28;20267;-81
2022/08/25 04:47:05;;;;;;;3.50;3.10;;;25.30;99.90;;;;;;4210516;28;20234;-81
2022/08/25 04:49:07;;;;;;;3.53;3.22;;;25.20;99.90;;;;;;4210727;28;20218;-81
2022/08/25 04:51:12;;;;;;;3.58;3.10;;;25.30;99.90;;;;;;4210644;28;20256;-81
2022/08/25 04:53:14;;;;;;;3.80;3.38;;;25.30;99.90;;;;;;4208238;28;20240;-81
2022/08/25 04:55:17;;;;;;;4.60;3.45;;;25.30;99.90;;;;;;4210898;28;20214;-81
2022/08/25 04:57:20;;;;;;;4.60;3.30;;;25.30;99.90;;;;;;4209736;28;20279;-81
2022/08/25 04:59:23;;;;;;;4.25;3.30;;;25.30;99.90;;;;;;4210539;28;20264;-81
2022/08/25 05:01:26;;;;;;;3.72;3.25;;;25.30;99.90;;;;;;4210033;28;20271;-81
2022/08/25 05:03:29;;;;;;;5.57;3.28;;;25.30;99.90;;;;;;4210450;28;20240;-81
2022/08/25 05:05:37;;;;;;;5.28;3.47;;;25.20;99.90;;;;;;4213731;28;20215;-81
2022/08/25 05:07:39;;;;;;;3.95;3.20;;;25.20;99.90;;;;;;4212262;28;20227;-81
2022/08/25 05:09:42;;;;;;;3.88;3.08;;;25.20;99.90;;;;;;4212392;28;20272;-81
2022/08/25 05:11:44;;;;;;;3.58;3.28;;;25.30;99.90;;;;;;4212302;28;20214;-81
2022/08/25 05:13:50;;;;;;;3.58;3.22;;;25.30;99.90;;;;;;4211848;28;20222;-81
2022/08/25 05:15:53;;;;;;;3.80;3.30;;;25.30;99.90;;;;;;4209441;28;20640;-81
2022/08/25 05:17:56;;;;;;;4.13;3.28;;;25.20;99.90;;;;;;4209784;28;20681;-81
2022/08/25 05:19:58;;;;;;;3.72;3.33;;;25.20;99.90;;;;;;4207478;28;20291;-81
2022/08/25 05:22:00;;;;;;;4.97;3.60;;;25.20;99.90;;;;;;4210140;28;20213;-81
2022/08/25 05:24:04;;;;;;;3.88;3.47;;;25.30;99.90;;;;;;4210034;28;20214;-81
2022/08/25 05:26:08;;;;;;;4.22;3.65;;;25.20;99.90;;;;;;4207282;28;20291;-81
2022/08/25 05:28:12;;;;;;;3.65;3.15;;;25.20;99.90;;;;;;4207457;28;20210;-81
2022/08/25 05:30:16;;;;;;;4.65;3.30;;;25.30;99.90;;;;;;4209006;28;20638;-81
2022/08/25 05:32:19;;;;;;;4.72;3.33;;;25.20;99.90;;;;;;4208447;28;20248;-81
2022/08/25 05:34:22;;;;;;;3.78;3.40;;;25.20;99.90;;;;;;4209826;28;20671;-81
2022/08/25 05:36:26;;;;;;;3.45;3.15;;;25.20;99.90;;;;;;4210025;28;20206;-81
2022/08/25 05:38:29;;;;;;;5.65;3.55;;;25.20;99.90;;;;;;4210077;28;20214;-81
2022/08/25 05:40:32;;;;;;;3.75;3.22;;;25.20;99.90;;;;;;4208880;28;20218;-81
2022/08/25 05:42:36;;;;;;;4.20;3.47;;;25.20;99.90;;;;;;4208251;28;20218;-81
2022/08/25 05:44:38;;;;;;;4.53;3.30;;;25.20;99.90;;;;;;4209109;28;20226;-81
2022/08/25 05:46:42;;;;;;;4.40;3.55;;;25.20;99.90;;;;;;4208761;28;20250;-81
2022/08/25 05:48:44;;;;;;;3.88;3.47;;;25.30;99.90;;;;;;4206683;28;20259;-81
2022/08/25 05:50:51;;;;;;;3.38;3.05;;;25.20;99.90;;;;;;4209140;28;20263;-81
2022/08/25 05:52:57;;;;;;;4.32;3.55;;;25.30;99.90;;;;;;4209287;28;20594;-81
2022/08/25 05:54:59;;;;;;;3.40;3.10;;;25.30;99.90;;;;;;4209149;28;20283;-81
2022/08/25 05:57:01;;;;;;;3.35;3.05;;;25.30;99.90;;;;;;4212237;28;20326;-81
2022/08/25 05:59:03;;;;;;;4.95;3.10;;;25.20;99.90;;;;;;4207529;28;20206;-81
2022/08/25 06:03:23;;;;;;;3.58;3.05;;;25.30;99.90;;;;;;4208128;28;20203;-82
2022/08/25 06:05:26;;;;;;;3.58;3.25;;;25.30;99.90;;;;;;4209465;28;20218;-82
2022/08/25 06:07:28;;;;;;;5.20;2.97;;;25.30;99.90;;;;;;4210051;28;20234;-82
2022/08/25 06:09:31;;;;;;;3.83;3.30;;;25.30;99.90;;;;;;4209900;28;20614;-80
2022/08/25 06:11:33;;;;;;;5.50;3.53;;;25.30;99.90;;;;;;4210301;28;20222;-80
2022/08/25 06:13:35;;;;;;;4.70;3.30;;;25.20;99.90;;;;;;4212865;28;21503;-79
2022/08/25 06:15:38;;;;;;;4.07;3.33;;;25.30;99.90;;;;;;4213135;28;20211;-80
2022/08/25 06:17:41;;;;;;;4.78;3.45;;;25.30;99.90;;;;;;4213445;28;20218;-79
2022/08/25 06:19:45;;;;;;;6.47;3.38;;;25.30;99.90;;;;;;4219787;28;20206;-80
2022/08/25 06:21:47;;;;;;;3.47;3.17;;;25.30;99.90;;;;;;4215078;28;20215;-81
2022/08/25 06:23:50;;;;;;;4.18;3.72;;;25.30;99.90;;;;;;4215208;28;20263;-80
2022/08/25 06:25:55;;;;;;;5.68;3.17;;;25.30;99.90;;;;;;4215694;28;20263;-82
2022/08/25 06:27:57;;;;;;;4.25;3.33;;;25.30;99.90;;;;;;4212741;28;20238;-82
2022/08/25 06:30:03;;;;;;;3.90;3.38;;;25.30;99.90;;;;;;4213150;28;20268;-82
2022/08/25 06:32:05;;;;;;;3.42;3.10;;;25.30;99.90;;;;;;4213010;28;20236;-81
2022/08/25 06:34:08;;;;;;;5.75;3.67;;;25.30;99.90;;;;;;4211258;28;20218;-82
2022/08/25 06:36:11;;;;;;;4.03;3.63;;;25.30;99.90;;;;;;4212711;28;20210;-81
2022/08/25 06:38:13;;;;;;;4.22;3.50;;;25.30;99.90;;;;;;4212651;28;20268;-82
2022/08/25 06:40:16;;;;;;;5.55;3.33;;;25.30;99.90;;;;;;4211896;28;20466;-81
2022/08/25 06:42:18;;;;;;;6.97;4.03;;;25.30;99.90;;;;;;4213064;28;20218;-82
2022/08/25 06:44:21;;;;;;;5.75;3.67;;;25.30;99.90;;;;;;4212191;28;20210;-81
2022/08/25 06:46:25;;;;;;;6.45;3.50;;;25.30;99.90;;;;;;4212466;28;20222;-82
2022/08/25 06:48:28;;;;;;;4.82;3.50;;;25.30;99.90;;;;;;4213026;28;20264;-81
2022/08/25 06:50:30;;;;;;;4.93;3.38;;;25.30;99.90;;;;;;4211349;28;20234;-82
2022/08/25 06:52:34;;;;;;;4.15;3.13;;;25.30;99.90;;;;;;4209577;28;20635;-82
2022/08/25 06:54:37;;;;;;;7.97;3.90;;;25.30;99.90;;;;;;4210615;28;20210;-83
2022/08/25 06:56:40;;;;;;;10.30;4.45;;;25.30;99.90;;;;;;4211455;28;20686;-83
2022/08/25 06:58:43;;;;;;;14.68;5.40;;;25.30;99.90;;;;;;4214200;28;20276;-83
2022/08/25 07:00:45;;;;;;;19.98;6.18;;;25.20;99.90;;;;;;4212363;28;20625;-87
2022/08/25 07:02:47;;;;;;;15.18;6.03;;;25.20;99.90;;;;;;4215045;28;20264;-86
2022/08/25 07:04:52;;;;;;;15.07;6.38;;;25.20;99.90;;;;;;4215445;28;20267;-87
2022/08/25 07:06:54;;;;;;;16.65;6.47;;;25.30;99.90;;;;;;4211428;28;20279;-83
2022/08/25 07:08:58;;;;;;;18.48;5.50;;;25.30;99.90;;;;;;4209547;28;20223;-82
2022/08/25 07:11:05;;;;;;;16.83;6.38;;;25.30;99.90;;;;;;4216483;28;20606;-83
2022/08/25 07:13:07;;;;;;;14.23;5.57;;;25.30;99.90;;;;;;4211425;28;20263;-83
2022/08/25 07:15:10;;;;;;;17.60;5.80;;;25.30;99.90;;;;;;4214015;28;20739;-84
2022/08/25 07:17:13;;;;;;;17.33;6.28;;;25.40;99.90;;;;;;4216636;28;20207;-83
2022/08/25 07:19:32;;;;;;;25.27;6.63;;;25.50;99.90;;;;;;4218333;28;20622;-85
2022/08/25 07:21:36;;;;;;;22.08;5.82;;;25.50;99.90;;;;;;4203340;28;20634;-83
2022/08/25 07:23:39;;;;;;;23.52;6.10;;;25.50;99.90;;;;;;4211651;28;20219;-84
2022/08/25 07:25:42;;;;;;;20.30;6.20;;;25.40;99.90;;;;;;4219597;28;20251;-85
2022/08/25 07:27:45;;;;;;;21.15;5.88;;;25.50;99.90;;;;;;4205606;28;20231;-83
2022/08/25 07:29:48;;;;;;;15.02;5.10;;;25.40;99.90;;;;;;4211226;28;20219;-84
2022/08/25 07:31:51;;;;;;;14.80;5.13;;;25.40;99.90;;;;;;4203867;28;20271;-83
2022/08/25 07:36:13;;;;;;;11.10;4.43;;;25.50;99.90;;;;;;4207179;28;20199;-83
2022/08/25 07:38:15;;;;;;;18.10;5.72;;;25.40;99.90;;;;;;4213779;28;20210;-83
2022/08/25 07:40:21;;;;;;;13.25;5.05;;;25.50;99.90;;;;;;4201813;28;20219;-84
2022/08/25 07:42:26;;;;;;;12.23;4.60;;;25.40;99.90;;;;;;4211627;28;20213;-83
2022/08/25 07:44:31;;;;;;;17.73;4.75;;;25.60;99.90;;;;;;4208493;28;20222;-84
2022/08/25 07:46:33;;;;;;;16.33;5.35;;;25.70;99.90;;;;;;4210358;28;20214;-86
2022/08/25 07:48:36;;;;;;;14.23;5.13;;;25.80;99.90;;;;;;4211187;28;20284;-85
2022/08/25 07:50:41;;;;;;;29.90;15.27;;;25.90;99.90;;;;;;4216557;28;20206;-85
2022/08/25 07:52:45;;;;;;;42.20;21.88;;;25.90;99.90;;;;;;4211344;28;20218;-84
2022/08/25 07:54:52;;;;;;;41.20;21.95;;;25.90;99.90;;;;;;4209486;28;20210;-83
2022/08/25 07:56:54;;;;;;;30.23;18.55;;;25.80;99.90;;;;;;4207076;28;20238;-84
2022/08/25 07:58:58;;;;;;;31.42;18.17;;;25.70;99.90;;;;;;4211785;28;20267;-84
2022/08/25 08:01:00;;;;;;;32.10;18.80;;;25.80;99.90;;;;;;4211340;28;20205;-83
2022/08/25 08:03:04;;;;;;;37.45;18.67;;;25.80;99.90;;;;;;4215458;28;20259;-85
2022/08/25 08:05:10;;;;;;;35.65;17.88;;;25.90;99.90;;;;;;4211060;28;20218;-83
2022/08/25 08:07:12;;;;;;;28.35;12.77;;;25.90;99.90;;;;;;4200865;28;20267;-87
2022/08/25 08:09:15;;;;;;;28.95;13.45;;;25.90;99.90;;;;;;4210217;28;20199;-83
2022/08/25 08:11:20;;;;;;;22.63;12.60;;;26.00;99.90;;;;;;4201377;28;20626;-84
2022/08/25 08:13:25;;;;;;;21.00;11.77;;;26.10;99.90;;;;;;4204453;28;20659;-84
2022/08/25 08:15:28;;;;;;;24.50;11.57;;;26.10;99.90;;;;;;4207940;28;20214;-83
2022/08/25 08:17:31;;;;;;;24.42;11.77;;;26.10;99.90;;;;;;4209257;28;20264;-82
2022/08/25 08:19:33;;;;;;;22.88;11.52;;;26.10;99.90;;;;;;4220945;28;20210;-83
2022/08/25 08:21:36;;;;;;;23.23;11.50;;;26.10;99.90;;;;;;4208582;28;20215;-83
2022/08/25 08:23:39;;;;;;;23.48;9.60;;;26.10;99.90;;;;;;4210603;28;20666;-83
2022/08/25 08:25:41;;;;;;;16.83;8.40;;;26.10;99.90;;;;;;4198830;28;21838;-84
2022/08/25 08:27:44;;;;;;;16.67;8.05;;;26.10;99.90;;;;;;4207199;28;20690;-87
2022/08/25 08:29:47;;;;;;;19.00;8.93;;;26.20;99.90;;;;;;4207535;28;20274;-85
2022/08/25 08:31:50;;;;;;;12.68;6.72;;;26.20;99.90;;;;;;4206111;28;20619;-84
2022/08/25 08:33:54;;;;;;;11.23;6.10;;;26.30;99.90;;;;;;4200721;28;20211;-85
2022/08/25 08:35:59;;;;;;;11.18;5.55;;;26.20;99.90;;;;;;4195873;28;20667;-83
2022/08/25 08:38:01;;;;;;;10.35;5.47;;;26.20;99.90;;;;;;4209834;28;20248;-84
2022/08/25 08:40:05;;;;;;;11.07;4.65;;;26.10;99.90;;;;;;4214072;28;20267;-82
2022/08/25 08:42:22;;;;;;;8.10;4.55;;;26.20;99.90;;;;;;4208261;28;20211;-83
2022/08/25 08:44:30;;;;;;;8.98;4.28;;;26.20;99.90;;;;;;4205063;28;20267;-84
2022/08/25 08:46:40;;;;;;;6.70;3.60;;;26.20;99.90;;;;;;4201024;28;20266;-84
2022/08/25 08:48:58;;;;;;;6.50;3.60;;;26.20;99.90;;;;;;4206696;28;20230;-83
2022/08/25 08:51:13;;;;;;;5.55;3.47;;;26.30;99.90;;;;;;4204737;28;20228;-85
2022/08/25 08:53:22;;;;;;;7.00;3.35;;;26.30;99.90;;;;;;4202657;28;20620;-85
2022/08/25 08:55:30;;;;;;;7.55;3.25;;;26.40;99.90;;;;;;4206017;28;20219;-85
2022/08/25 08:57:41;;;;;;;6.72;3.20;;;26.40;99.90;;;;;;4210376;28;20276;-85
2022/08/25 08:59:54;;;;;;;6.93;2.90;;;26.50;99.90;;;;;;4205350;28;20919;-83
2022/08/25 09:02:00;;;;;;;6.90;3.05;;;26.50;99.90;;;;;;4210020;28;20619;-84
2022/08/25 09:04:09;;;;;;;7.20;3.30;;;26.50;99.90;;;;;;4213868;28;20259;-84
2022/08/25 09:06:18;;;;;;;4.43;2.65;;;26.50;99.90;;;;;;4206134;28;20209;-84
2022/08/25 09:08:20;;;;;;;8.40;4.13;;;26.50;99.90;;;;;;4182931;28;21256;-79
2022/08/25 09:10:24;;;;;;;7.03;3.38;;;26.50;99.90;;;;;;4195177;28;20247;-83
2022/08/25 09:12:34;;;;;;;5.93;3.45;;;26.50;99.90;;;;;;4210281;28;20239;-81
2022/08/25 09:14:48;;;;;;;6.53;2.92;;;26.50;99.90;;;;;;4205305;28;20214;-79
2022/08/25 09:16:55;;;;;;;6.15;2.80;;;26.50;99.90;;;;;;4210660;28;20262;-82
2022/08/25 09:19:13;;;;;;;5.65;3.10;;;26.50;99.90;;;;;;4215319;28;20195;-77
2022/08/25 09:21:26;;;;;;;9.05;3.08;;;26.70;99.90;;;;;;4199503;28;20215;-77
2022/08/25 09:23:39;;;;;;;4.78;2.70;;;26.70;99.90;;;;;;4206554;28;20207;-78
2022/08/25 09:25:51;;;;;;;11.60;3.08;;;26.70;99.90;;;;;;4197986;28;20206;-78
2022/08/25 09:28:06;;;;;;;8.68;3.05;;;26.70;99.90;;;;;;4210781;28;20555;-78
2022/08/25 09:30:11;;;;;;;9.88;2.80;;;26.80;99.90;;;;;;4205456;28;20259;-79
2022/08/25 09:32:15;;;;;;;8.50;2.97;;;26.80;99.90;;;;;;4209917;28;20214;-78
2022/08/25 09:34:22;;;;;;;4.53;2.67;;;26.80;99.90;;;;;;4207784;28;20207;-81
2022/08/25 09:36:24;;;;;;;3.20;2.53;;;26.80;99.90;;;;;;4202700;28;20210;-76
2022/08/25 09:38:29;;;;;;;7.38;3.08;;;26.80;99.90;;;;;;4210889;28;20390;-77
2022/08/25 09:40:35;;;;;;;5.70;2.97;;;26.90;99.90;;;;;;4203768;28;20290;-76
2022/08/25 09:42:53;;;;;;;8.88;3.22;;;26.80;99.90;;;;;;4194624;28;20296;-79
2022/08/25 09:44:56;;;;;;;5.50;3.17;;;26.90;99.90;;;;;;4204775;28;20206;-77
2022/08/25 09:47:02;;;;;;;6.70;3.70;;;26.90;99.90;;;;;;4199219;28;20307;-80
2022/08/25 09:49:14;;;;;;;7.47;3.90;;;26.90;99.90;;;;;;4204935;28;20222;-83
2022/08/25 09:51:23;;;;;;;5.18;3.28;;;27.00;99.90;;;;;;4210036;28;20257;-83
2022/08/25 09:53:27;;;;;;;3.92;2.88;;;27.00;99.90;;;;;;4211345;28;20214;-81
2022/08/25 09:55:33;;;;;;;4.63;2.75;;;27.10;99.90;;;;;;4209297;28;20335;-79
2022/08/25 09:57:45;;;;;;;3.28;2.33;;;27.10;99.90;;;;;;4173803;28;20199;-76
2022/08/25 09:59:50;;;;;;;6.80;2.45;;;27.20;99.90;;;;;;4162179;28;21172;-76
2022/08/25 10:01:55;;;;;;;8.25;2.80;;;27.20;99.90;;;;;;4163648;28;20208;-79
2022/08/25 10:04:06;;;;;;;6.00;2.70;;;27.20;99.90;;;;;;4170707;28;20220;-77
2022/08/25 10:06:13;;;;;;;5.85;2.55;;;27.20;99.90;;;;;;4176540;28;20261;-77
2022/08/25 10:08:30;;;;;;;4.85;2.55;;;27.20;99.80;;;;;;4168223;28;20218;-78
2022/08/25 10:10:37;;;;;;;4.32;2.35;;;27.20;99.60;;;;;;4168834;28;20612;-80
2022/08/25 10:12:45;;;;;;;4.28;2.88;;;27.20;99.40;;;;;;4172993;28;20554;-81
2022/08/25 10:14:50;;;;;;;5.28;2.70;;;27.20;99.20;;;;;;4174663;28;20682;-81
2022/08/25 10:16:53;;;;;;;7.47;2.28;;;27.30;99.10;;;;;;4172329;28;20207;-80
2022/08/25 10:19:09;;;;;;;5.63;2.47;;;27.40;99.30;;;;;;4176779;28;20207;-77
2022/08/25 10:21:14;;;;;;;11.18;3.00;;;27.40;98.90;;;;;;4169140;28;20262;-81
2022/08/25 10:23:17;;;;;;;6.50;2.60;;;27.40;98.90;;;;;;4174634;28;20259;-81
2022/08/25 10:25:26;;;;;;;4.07;2.95;;;27.40;99.70;;;;;;4177851;28;20260;-86
2022/08/25 10:27:46;;;;;;;6.10;2.70;;;27.40;99.90;;;;;;4180258;28;20215;-83
2022/08/25 10:30:14;;;;;;;5.43;2.42;;;27.40;99.90;;;;;;4175590;28;20235;-82
2022/08/25 10:32:23;;;;;;;6.43;2.90;;;27.30;99.90;;;;;;4169717;28;20219;-80
2022/08/25 10:34:36;;;;;;;5.03;2.85;;;27.20;99.90;;;;;;4171882;28;20293;-84
2022/08/25 10:36:50;;;;;;;5.03;2.88;;;27.20;99.90;;;;;;4175016;28;22199;-81
2022/08/25 10:38:56;;;;;;;4.28;2.60;;;27.20;99.90;;;;;;4178967;28;20212;-84
2022/08/25 10:41:18;;;;;;;5.60;2.70;;;27.20;99.90;;;;;;4173171;28;20227;-83
2022/08/25 10:43:30;;;;;;;5.30;2.85;;;27.20;99.90;;;;;;4168544;28;20237;-84
2022/08/25 10:45:52;;;;;;;6.50;3.05;;;27.00;99.90;;;;;;4172455;28;20258;-80
2022/08/25 10:48:20;;;;;;;7.70;3.35;;;26.90;99.90;;;;;;4172760;28;20213;-81
2022/08/25 10:50:29;;;;;;;5.57;5.03;;;26.90;99.90;;;;;;4165662;28;20715;-84
2022/08/25 10:52:38;;;;;;;7.10;3.78;;;27.00;99.90;;;;;;4170329;28;20215;-83
2022/08/25 10:54:46;;;;;;;6.68;4.50;;;26.90;99.90;;;;;;4170451;28;20508;-80